Time;durP1;ratioP1;P1;durP2;ratioP2;P2;SDS_P1;SDS_P2;PMS_P1;PMS_P2;Temp;Humidity;BMP_temperature;BMP_pressure;BME280_temperature;BME280_humidity;BME280_pressure;Samples;Min_cycle;Max_cycle;Signal;HPM_P1;HPM_P2
2021/12/30 00:00:16;;;;;;;1.67;0.40;;;;;;;;;;4996893;28;20061;-78
2021/12/30 00:02:42;;;;;;;0.40;0.40;;;;;;;;;;5004899;28;20040;-78
2021/12/30 00:05:08;;;;;;;0.47;0.30;;;;;;;;;;5011944;28;20038;-78
2021/12/30 00:07:33;;;;;;;0.30;0.30;;;;;;;;;;5029816;28;20061;-77
2021/12/30 00:09:59;;;;;;;0.15;0.15;;;;;;;;;;4995303;28;20029;-77
2021/12/30 00:12:25;;;;;;;0.20;0.20;;;;;;;;;;4995942;28;20123;-79
2021/12/30 00:14:50;;;;;;;0.30;0.30;;;;;;;;;;4995367;28;20049;-78
2021/12/30 00:17:16;;;;;;;0.30;0.30;;;;;;;;;;5010636;28;20030;-78
2021/12/30 00:19:41;;;;;;;0.17;0.17;;;;;;;;;;4994087;28;20369;-79
2021/12/30 00:22:06;;;;;;;0.40;0.40;;;;;;;;;;4998444;28;20034;-78
2021/12/30 00:24:32;;;;;;;0.30;0.30;;;;;;;;;;5025709;28;20040;-78
2021/12/30 00:26:57;;;;;;;0.43;0.30;;;;;;;;;;5030261;28;20063;-78
2021/12/30 00:29:24;;;;;;;0.22;0.22;;;;;;;;;;5010996;28;20083;-78
2021/12/30 00:31:50;;;;;;;1.95;0.50;;;;;;;;;;4994245;28;20030;-78
2021/12/30 00:34:15;;;;;;;1.02;0.30;;;;;;;;;;4995850;28;20045;-78
2021/12/30 00:36:41;;;;;;;0.40;0.30;;;;;;;;;;4989293;28;20092;-75
2021/12/30 00:39:07;;;;;;;0.30;0.30;;;;;;;;;;5012707;28;20059;-79
2021/12/30 00:41:32;;;;;;;0.68;0.30;;;;;;;;;;4995132;28;20042;-78
2021/12/30 00:43:57;;;;;;;1.20;0.40;;;;;;;;;;5004100;28;20029;-78
2021/12/30 00:46:23;;;;;;;0.40;0.40;;;;;;;;;;5013851;28;20406;-78
2021/12/30 00:48:48;;;;;;;0.40;0.40;;;;;;;;;;4981157;28;20129;-79
2021/12/30 00:51:14;;;;;;;0.73;0.40;;;;;;;;;;4998270;28;20048;-79
2021/12/30 00:53:41;;;;;;;0.30;0.30;;;;;;;;;;4999370;28;20057;-79
2021/12/30 00:56:06;;;;;;;0.20;0.20;;;;;;;;;;5012248;28;20064;-80
2021/12/30 00:58:32;;;;;;;0.22;0.22;;;;;;;;;;4996388;28;20034;-79
2021/12/30 01:00:59;;;;;;;0.43;0.43;;;;;;;;;;4991249;28;20042;-80
2021/12/30 01:03:25;;;;;;;0.43;0.30;;;;;;;;;;4981157;28;20887;-78
2021/12/30 01:05:51;;;;;;;0.20;0.20;;;;;;;;;;4974091;28;20030;-77
2021/12/30 01:08:17;;;;;;;1.35;0.43;;;;;;;;;;5001329;28;20038;-78
2021/12/30 01:10:44;;;;;;;0.20;0.20;;;;;;;;;;4965766;28;20031;-77
2021/12/30 01:13:16;;;;;;;0.30;0.30;;;;;;;;;;4984007;28;20039;-77
2021/12/30 01:15:48;;;;;;;;;;;;;;;;;;4994782;28;20034;-77
2021/12/30 01:18:34;;;;;;;0.32;0.28;;;;;;;;;;5004508;28;19924;-76
2021/12/30 01:21:00;;;;;;;0.20;0.20;;;;;;;;;;5002208;28;20088;-77
2021/12/30 01:23:26;;;;;;;0.20;0.20;;;;;;;;;;4990178;28;20061;-78
2021/12/30 01:25:52;;;;;;;0.20;0.20;;;;;;;;;;5006219;28;20057;-77
2021/12/30 01:28:18;;;;;;;0.68;0.43;;;;;;;;;;4989821;28;20038;-77
2021/12/30 01:30:44;;;;;;;1.08;0.22;;;;;;;;;;4987191;28;20045;-77
2021/12/30 01:33:09;;;;;;;0.20;0.20;;;;;;;;;;4990725;28;20034;-77
2021/12/30 01:35:35;;;;;;;0.30;0.30;;;;;;;;;;4986800;28;20115;-77
2021/12/30 01:38:01;;;;;;;0.20;0.20;;;;;;;;;;5021862;28;20085;-77
2021/12/30 01:40:30;;;;;;;0.20;0.20;;;;;;;;;;5004874;28;20045;-77
2021/12/30 01:42:56;;;;;;;0.30;0.30;;;;;;;;;;5003822;28;20034;-78
2021/12/30 01:45:22;;;;;;;0.30;0.30;;;;;;;;;;4988719;28;20073;-77
2021/12/30 01:47:51;;;;;;;0.20;0.20;;;;;;;;;;4981725;28;20384;-78
2021/12/30 01:50:18;;;;;;;1.10;0.32;;;;;;;;;;4989513;28;20037;-77
2021/12/30 01:52:44;;;;;;;0.20;0.20;;;;;;;;;;4989313;28;20049;-77
2021/12/30 01:55:11;;;;;;;1.20;0.32;;;;;;;;;;5024038;28;20034;-78
2021/12/30 01:57:37;;;;;;;0.30;0.20;;;;;;;;;;5005116;28;20435;-77
2021/12/30 02:00:09;;;;;;;0.20;0.20;;;;;;;;;;5023184;28;20510;-77
2021/12/30 02:02:38;;;;;;;0.20;0.20;;;;;;;;;;4988584;28;20088;-77
2021/12/30 02:05:04;;;;;;;0.25;0.20;;;;;;;;;;4987194;28;20038;-77
2021/12/30 02:07:29;;;;;;;0.10;0.10;;;;;;;;;;4974829;28;20038;-78
2021/12/30 02:10:00;;;;;;;0.10;0.10;;;;;;;;;;4990607;28;20410;-78
2021/12/30 02:12:27;;;;;;;0.40;0.40;;;;;;;;;;5006093;28;20049;-78
2021/12/30 02:14:52;;;;;;;0.30;0.30;;;;;;;;;;4991082;28;20037;-77
2021/12/30 02:17:18;;;;;;;0.30;0.30;;;;;;;;;;4983570;28;20141;-77
2021/12/30 02:19:43;;;;;;;0.25;0.20;;;;;;;;;;4986602;28;20038;-77
2021/12/30 02:22:09;;;;;;;0.47;0.32;;;;;;;;;;5001534;28;20653;-77
2021/12/30 02:24:36;;;;;;;1.73;0.20;;;;;;;;;;5001468;28;20413;-77
2021/12/30 02:27:03;;;;;;;0.20;0.20;;;;;;;;;;4989858;28;20152;-77
2021/12/30 02:29:28;;;;;;;1.27;0.30;;;;;;;;;;4992588;28;20035;-77
2021/12/30 02:31:54;;;;;;;0.20;0.20;;;;;;;;;;5014459;28;20026;-76
2021/12/30 02:34:21;;;;;;;0.20;0.20;;;;;;;;;;5014953;28;20128;-78
2021/12/30 02:36:47;;;;;;;0.20;0.20;;;;;;;;;;4996019;28;20080;-77
2021/12/30 02:39:14;;;;;;;0.20;0.20;;;;;;;;;;5013021;28;20546;-77
2021/12/30 02:41:40;;;;;;;0.20;0.20;;;;;;;;;;4993932;28;20414;-77
2021/12/30 02:44:07;;;;;;;0.32;0.32;;;;;;;;;;4980160;28;20505;-76
2021/12/30 02:46:34;;;;;;;1.13;0.20;;;;;;;;;;4996796;28;20482;-76
2021/12/30 02:48:59;;;;;;;0.20;0.20;;;;;;;;;;5014051;28;20069;-76
2021/12/30 02:51:26;;;;;;;0.28;0.20;;;;;;;;;;4996092;28;20081;-76
2021/12/30 02:53:51;;;;;;;0.10;0.10;;;;;;;;;;5013953;28;20041;-77
2021/12/30 02:56:18;;;;;;;0.20;0.20;;;;;;;;;;5014590;28;20052;-76
2021/12/30 02:58:44;;;;;;;0.20;0.20;;;;;;;;;;4996979;28;20037;-76
2021/12/30 03:01:15;;;;;;;0.55;0.22;;;;;;;;;;4996848;28;20398;-76
2021/12/30 03:03:41;;;;;;;0.30;0.30;;;;;;;;;;4995709;28;20544;-77
2021/12/30 03:06:09;;;;;;;0.20;0.20;;;;;;;;;;5014240;28;20095;-76
2021/12/30 03:08:35;;;;;;;0.30;0.30;;;;;;;;;;4996574;28;20045;-77
2021/12/30 03:11:02;;;;;;;0.20;0.20;;;;;;;;;;5014861;28;20068;-77
2021/12/30 03:13:32;;;;;;;0.20;0.20;;;;;;;;;;4997033;28;20041;-77
2021/12/30 03:16:06;;;;;;;0.57;0.30;;;;;;;;;;4998232;28;20061;-77
2021/12/30 03:18:33;;;;;;;0.20;0.20;;;;;;;;;;5010239;28;20112;-77
2021/12/30 03:21:00;;;;;;;0.20;0.20;;;;;;;;;;5016767;28;20087;-77
2021/12/30 03:23:25;;;;;;;0.30;0.30;;;;;;;;;;5033296;28;20041;-77
2021/12/30 03:25:51;;;;;;;0.20;0.20;;;;;;;;;;5003015;28;20113;-77
2021/12/30 03:28:17;;;;;;;0.30;0.30;;;;;;;;;;5004880;28;20041;-77
2021/12/30 03:30:43;;;;;;;0.20;0.20;;;;;;;;;;4996259;28;20531;-77
2021/12/30 03:33:08;;;;;;;0.63;0.30;;;;;;;;;;4994831;28;20037;-77
2021/12/30 03:35:34;;;;;;;0.28;0.28;;;;;;;;;;4995634;28;20068;-78
2021/12/30 03:37:59;;;;;;;0.22;0.22;;;;;;;;;;4994946;28;20177;-77
2021/12/30 03:40:25;;;;;;;0.30;0.30;;;;;;;;;;4994405;28;20041;-77
2021/12/30 03:42:50;;;;;;;0.30;0.30;;;;;;;;;;5011712;28;20038;-77
2021/12/30 03:45:17;;;;;;;0.30;0.30;;;;;;;;;;5005079;28;20034;-77
2021/12/30 03:47:45;;;;;;;0.57;0.30;;;;;;;;;;4993897;28;20033;-77
2021/12/30 03:50:19;;;;;;;0.20;0.20;;;;;;;;;;4976374;28;20049;-76
2021/12/30 03:52:45;;;;;;;0.30;0.28;;;;;;;;;;4967561;28;20380;-77
2021/12/30 03:55:11;;;;;;;0.40;0.20;;;;;;;;;;5002944;28;20410;-78
2021/12/30 03:57:36;;;;;;;0.45;0.30;;;;;;;;;;4977453;28;20125;-77
2021/12/30 04:00:04;;;;;;;0.20;0.20;;;;;;;;;;5012517;28;20038;-79
2021/12/30 04:02:31;;;;;;;0.20;0.20;;;;;;;;;;4974931;28;20050;-77
2021/12/30 04:04:56;;;;;;;0.32;0.30;;;;;;;;;;4974112;28;20098;-77
2021/12/30 04:07:22;;;;;;;0.30;0.30;;;;;;;;;;5001968;28;20052;-78
2021/12/30 04:09:47;;;;;;;0.20;0.20;;;;;;;;;;4994486;28;20034;-77
2021/12/30 04:12:13;;;;;;;0.15;0.15;;;;;;;;;;4994429;28;20041;-77
2021/12/30 04:14:39;;;;;;;0.40;0.13;;;;;;;;;;5011278;28;20041;-78
2021/12/30 04:17:04;;;;;;;0.20;0.20;;;;;;;;;;4961237;28;20022;-77
2021/12/30 04:19:30;;;;;;;0.20;0.20;;;;;;;;;;5011478;28;20497;-77
2021/12/30 04:21:57;;;;;;;0.28;0.28;;;;;;;;;;4994662;28;20030;-77
2021/12/30 04:24:23;;;;;;;0.30;0.30;;;;;;;;;;4988618;28;20087;-77
2021/12/30 04:26:50;;;;;;;0.77;0.55;;;;;;;;;;5002217;28;20041;-77
2021/12/30 04:29:17;;;;;;;0.40;0.40;;;;;;;;;;4969357;28;20454;-77
2021/12/30 04:31:43;;;;;;;0.25;0.22;;;;;;;;;;4969311;28;20128;-76
2021/12/30 04:34:09;;;;;;;0.30;0.30;;;;;;;;;;5010533;28;20489;-76
2021/12/30 04:36:34;;;;;;;0.88;0.50;;;;;;;;;;5010668;28;20121;-76
2021/12/30 04:39:00;;;;;;;0.60;0.40;;;;;;;;;;4976281;28;20034;-76
2021/12/30 04:41:25;;;;;;;0.43;0.40;;;;;;;;;;4987269;28;20494;-76
2021/12/30 04:43:51;;;;;;;0.65;0.50;;;;;;;;;;5001659;28;20125;-77
2021/12/30 04:46:16;;;;;;;0.25;0.25;;;;;;;;;;4984287;28;20034;-77
2021/12/30 04:48:42;;;;;;;0.50;0.50;;;;;;;;;;4992957;28;20030;-77
2021/12/30 04:51:07;;;;;;;0.73;0.55;;;;;;;;;;4980830;28;20375;-77
2021/12/30 04:53:33;;;;;;;1.40;0.50;;;;;;;;;;4993494;28;20402;-77
2021/12/30 04:55:58;;;;;;;0.40;0.40;;;;;;;;;;5000654;28;20043;-77
2021/12/30 04:58:24;;;;;;;0.68;0.50;;;;;;;;;;4996762;28;20038;-78
2021/12/30 05:00:49;;;;;;;0.50;0.50;;;;;;;;;;4982205;28;20034;-77
2021/12/30 05:03:16;;;;;;;0.47;0.47;;;;;;;;;;4993213;28;20057;-78
2021/12/30 05:05:47;;;;;;;0.30;0.30;;;;;;;;;;4992705;28;20073;-78
2021/12/30 05:08:17;;;;;;;0.50;0.50;;;;;;;;;;4992714;28;20049;-77
2021/12/30 05:10:42;;;;;;;0.50;0.50;;;;;;;;;;4992737;28;20056;-77
2021/12/30 05:13:09;;;;;;;0.40;0.40;;;;;;;;;;4969241;28;20372;-76
2021/12/30 05:15:36;;;;;;;0.40;0.40;;;;;;;;;;4977462;28;20076;-76
2021/12/30 05:18:03;;;;;;;0.70;0.50;;;;;;;;;;4983416;28;20038;-76
2021/12/30 05:20:28;;;;;;;0.55;0.55;;;;;;;;;;4986881;28;20042;-76
2021/12/30 05:22:54;;;;;;;1.08;0.40;;;;;;;;;;5002726;28;20038;-76
2021/12/30 05:25:20;;;;;;;0.40;0.40;;;;;;;;;;5007165;28;20087;-76
2021/12/30 05:27:48;;;;;;;0.50;0.50;;;;;;;;;;4992102;28;20113;-77
2021/12/30 05:30:14;;;;;;;0.30;0.30;;;;;;;;;;4972382;28;20030;-77
2021/12/30 05:32:40;;;;;;;1.20;0.40;;;;;;;;;;5008338;28;20046;-78
2021/12/30 05:35:08;;;;;;;0.40;0.40;;;;;;;;;;4988700;28;20070;-77
2021/12/30 05:37:34;;;;;;;0.47;0.45;;;;;;;;;;5007951;28;20061;-78
2021/12/30 05:39:59;;;;;;;0.30;0.30;;;;;;;;;;5006144;28;20127;-77
2021/12/30 05:42:25;;;;;;;0.40;0.30;;;;;;;;;;5008328;28;20038;-77
2021/12/30 05:44:52;;;;;;;0.50;0.40;;;;;;;;;;4991082;28;20061;-78
2021/12/30 05:47:18;;;;;;;0.82;0.50;;;;;;;;;;4991738;28;20045;-77
2021/12/30 05:49:43;;;;;;;0.40;0.40;;;;;;;;;;4979446;28;20037;-77
2021/12/30 05:52:10;;;;;;;0.30;0.30;;;;;;;;;;4975413;28;20060;-77
2021/12/30 05:54:36;;;;;;;0.30;0.30;;;;;;;;;;5029801;28;20017;-77
2021/12/30 05:57:02;;;;;;;1.58;0.55;;;;;;;;;;4984989;28;20038;-77
2021/12/30 05:59:27;;;;;;;0.40;0.40;;;;;;;;;;4999996;28;20042;-77
2021/12/30 06:01:53;;;;;;;0.47;0.47;;;;;;;;;;4971888;28;20034;-77
2021/12/30 06:04:18;;;;;;;0.38;0.38;;;;;;;;;;4992226;28;20411;-77
2021/12/30 06:06:44;;;;;;;0.52;0.30;;;;;;;;;;4996956;28;20052;-77
2021/12/30 06:09:10;;;;;;;0.47;0.40;;;;;;;;;;4978017;28;20038;-77
2021/12/30 06:11:36;;;;;;;0.32;0.30;;;;;;;;;;4996345;28;20394;-77
2021/12/30 06:14:01;;;;;;;0.40;0.40;;;;;;;;;;4995471;28;20117;-77
2021/12/30 06:16:27;;;;;;;0.40;0.30;;;;;;;;;;4972675;28;20121;-77
2021/12/30 06:18:52;;;;;;;0.30;0.30;;;;;;;;;;4989472;28;20537;-77
2021/12/30 06:21:18;;;;;;;0.40;0.40;;;;;;;;;;4987596;28;20069;-77
2021/12/30 06:23:44;;;;;;;0.47;0.47;;;;;;;;;;4970816;28;20145;-77
2021/12/30 06:26:09;;;;;;;0.30;0.30;;;;;;;;;;5002127;28;20069;-76
2021/12/30 06:28:35;;;;;;;2.22;0.50;;;;;;;;;;4990272;28;20048;-76
2021/12/30 06:31:00;;;;;;;0.82;0.40;;;;;;;;;;4978425;28;20030;-76
2021/12/30 06:33:25;;;;;;;0.30;0.30;;;;;;;;;;4985973;28;20081;-76
2021/12/30 06:35:51;;;;;;;0.40;0.40;;;;;;;;;;4995944;28;20038;-76
2021/12/30 06:38:16;;;;;;;0.70;0.45;;;;;;;;;;4975675;28;20080;-76
2021/12/30 06:40:42;;;;;;;0.55;0.50;;;;;;;;;;5005611;28;20038;-77
2021/12/30 06:43:09;;;;;;;0.45;0.45;;;;;;;;;;4986452;28;20033;-77
2021/12/30 06:45:34;;;;;;;0.47;0.47;;;;;;;;;;4992518;28;20033;-77
2021/12/30 06:48:00;;;;;;;1.15;0.40;;;;;;;;;;4997365;28;20048;-77
2021/12/30 06:50:31;;;;;;;0.30;0.30;;;;;;;;;;4977067;28;20628;-77
2021/12/30 06:52:56;;;;;;;0.40;0.40;;;;;;;;;;4994190;28;20606;-77
2021/12/30 06:55:22;;;;;;;1.70;0.40;;;;;;;;;;4983132;28;20065;-77
2021/12/30 06:57:48;;;;;;;0.40;0.40;;;;;;;;;;4986878;28;20609;-76
2021/12/30 07:00:14;;;;;;;0.30;0.30;;;;;;;;;;5004750;28;20034;-75
2021/12/30 07:02:44;;;;;;;1.08;0.60;;;;;;;;;;4986107;28;20045;-77
2021/12/30 07:05:11;;;;;;;0.60;0.22;;;;;;;;;;5012027;28;20056;-76
2021/12/30 07:07:37;;;;;;;0.30;0.30;;;;;;;;;;5012078;28;20045;-76
2021/12/30 07:10:04;;;;;;;0.47;0.47;;;;;;;;;;4994043;28;20033;-77
2021/12/30 07:12:30;;;;;;;0.40;0.40;;;;;;;;;;5011230;28;20049;-76
2021/12/30 07:14:57;;;;;;;0.43;0.43;;;;;;;;;;4988779;28;20042;-77
2021/12/30 07:17:23;;;;;;;0.63;0.40;;;;;;;;;;5001293;28;20113;-76
2021/12/30 07:19:49;;;;;;;0.50;0.50;;;;;;;;;;4975918;28;20033;-76
2021/12/30 07:22:14;;;;;;;0.30;0.30;;;;;;;;;;5007669;28;20042;-77
2021/12/30 07:24:40;;;;;;;0.63;0.30;;;;;;;;;;4997407;28;20082;-76
2021/12/30 07:27:05;;;;;;;0.43;0.40;;;;;;;;;;5004940;28;20039;-76
2021/12/30 07:29:31;;;;;;;1.48;0.35;;;;;;;;;;4990984;28;20038;-76
2021/12/30 07:31:56;;;;;;;1.33;0.50;;;;;;;;;;4988512;28;20038;-77
2021/12/30 07:34:22;;;;;;;0.50;0.47;;;;;;;;;;4992824;28;20048;-77
2021/12/30 07:36:47;;;;;;;0.38;0.35;;;;;;;;;;4993576;28;20029;-76
2021/12/30 07:39:12;;;;;;;1.17;0.30;;;;;;;;;;4977098;28;20034;-77
2021/12/30 07:41:38;;;;;;;0.40;0.40;;;;;;;;;;5011238;28;20040;-76
2021/12/30 07:44:04;;;;;;;0.40;0.40;;;;;;;;;;4992627;28;20069;-77
2021/12/30 07:46:31;;;;;;;0.93;0.32;;;;;;;;;;4971244;28;20502;-77
2021/12/30 07:48:57;;;;;;;1.00;0.50;;;;;;;;;;4992978;28;20053;-77
2021/12/30 07:51:23;;;;;;;2.05;0.40;;;;;;;;;;4978584;28;20034;-77
2021/12/30 07:53:48;;;;;;;0.35;0.20;;;;;;;;;;4996704;28;20033;-77
2021/12/30 07:56:14;;;;;;;0.50;0.50;;;;;;;;;;4996489;28;20786;-77
2021/12/30 07:58:40;;;;;;;0.50;0.40;;;;;;;;;;5004724;28;20038;-77
2021/12/30 08:01:06;;;;;;;0.20;0.20;;;;;;;;;;4981654;28;20053;-77
2021/12/30 08:03:31;;;;;;;0.40;0.40;;;;;;;;;;5002107;28;20041;-77
2021/12/30 08:05:57;;;;;;;0.82;0.30;;;;;;;;;;4992370;28;20125;-78
2021/12/30 08:08:22;;;;;;;0.30;0.30;;;;;;;;;;5009219;28;20034;-79
2021/12/30 08:10:48;;;;;;;0.98;0.70;;;;;;;;;;4992012;28;20088;-78
2021/12/30 08:13:14;;;;;;;1.65;0.38;;;;;;;;;;4992376;28;20125;-77
2021/12/30 08:15:40;;;;;;;1.48;0.52;;;;;;;;;;4992263;28;20085;-76
2021/12/30 08:18:05;;;;;;;3.28;0.45;;;;;;;;;;4991547;28;20056;-77
2021/12/30 08:20:31;;;;;;;0.77;0.40;;;;;;;;;;4956414;28;20767;-76
2021/12/30 08:22:56;;;;;;;0.43;0.38;;;;;;;;;;4972757;28;20038;-75
2021/12/30 08:25:22;;;;;;;0.43;0.35;;;;;;;;;;5008954;28;20120;-77
2021/12/30 08:27:49;;;;;;;0.30;0.30;;;;;;;;;;4977195;28;20418;-74
2021/12/30 08:30:20;;;;;;;0.20;0.20;;;;;;;;;;5007941;28;20047;-75
2021/12/30 08:32:46;;;;;;;;;;;;;;;;;;5001578;28;20029;-75
2021/12/30 08:35:14;;;;;;;0.38;0.38;;;;;;;;;;5008312;28;20421;-75
2021/12/30 08:37:41;;;;;;;0.28;0.28;;;;;;;;;;4992271;28;20490;-75
2021/12/30 08:40:09;;;;;;;0.68;0.40;;;;;;;;;;4992778;28;20076;-75
2021/12/30 08:42:36;;;;;;;0.73;0.50;;;;;;;;;;4977532;28;20042;-79
2021/12/30 08:45:03;;;;;;;0.57;0.25;;;;;;;;;;4992077;28;20435;-78
2021/12/30 08:47:30;;;;;;;0.20;0.20;;;;;;;;;;5002866;28;20034;-79
2021/12/30 08:49:56;;;;;;;0.90;0.30;;;;;;;;;;4979610;28;20017;-79
2021/12/30 08:52:25;;;;;;;0.20;0.20;;;;;;;;;;5010822;28;20037;-76
2021/12/30 08:54:52;;;;;;;0.30;0.30;;;;;;;;;;4992402;28;20030;-75
2021/12/30 08:57:19;;;;;;;0.40;0.30;;;;;;;;;;4990500;28;20034;-76
2021/12/30 08:59:46;;;;;;;0.40;0.20;;;;;;;;;;4992565;28;20158;-75
2021/12/30 09:02:12;;;;;;;2.70;0.40;;;;;;;;;;4992798;28;20042;-75
2021/12/30 09:04:42;;;;;;;0.43;0.30;;;;;;;;;;5010374;28;20049;-77
2021/12/30 09:07:13;;;;;;;0.20;0.20;;;;;;;;;;5014080;28;20119;-77
2021/12/30 09:09:40;;;;;;;0.38;0.30;;;;;;;;;;5003816;28;20041;-78
2021/12/30 09:12:06;;;;;;;0.32;0.32;;;;;;;;;;4981097;28;20100;-78
2021/12/30 09:14:32;;;;;;;1.55;0.40;;;;;;;;;;4979585;28;20040;-77
2021/12/30 09:16:57;;;;;;;0.35;0.35;;;;;;;;;;4995017;28;20026;-77
2021/12/30 09:19:23;;;;;;;0.30;0.30;;;;;;;;;;5012475;28;20075;-77
2021/12/30 09:21:51;;;;;;;0.30;0.30;;;;;;;;;;4995856;28;20041;-78
2021/12/30 09:24:18;;;;;;;0.22;0.22;;;;;;;;;;5012466;28;20506;-77
2021/12/30 09:26:43;;;;;;;0.35;0.35;;;;;;;;;;4985350;28;20094;-79
2021/12/30 09:29:12;;;;;;;0.40;0.40;;;;;;;;;;4991762;28;20049;-77
2021/12/30 09:31:43;;;;;;;0.20;0.20;;;;;;;;;;4988128;28;20379;-78
2021/12/30 09:34:08;;;;;;;0.27;0.27;;;;;;;;;;4969094;28;20500;-78
2021/12/30 09:36:35;;;;;;;0.30;0.30;;;;;;;;;;4991511;28;20299;-78
2021/12/30 09:39:00;;;;;;;0.30;0.30;;;;;;;;;;5000577;28;20670;-78
2021/12/30 09:41:26;;;;;;;0.55;0.22;;;;;;;;;;5013573;28;20056;-76
2021/12/30 09:43:51;;;;;;;0.38;0.30;;;;;;;;;;5012649;28;20053;-76
2021/12/30 09:46:17;;;;;;;1.95;0.30;;;;;;;;;;4994827;28;20057;-77
2021/12/30 09:48:43;;;;;;;0.30;0.30;;;;;;;;;;4995499;28;20524;-76
2021/12/30 09:51:09;;;;;;;0.95;0.20;;;;;;;;;;4995428;28;20041;-76
2021/12/30 09:53:35;;;;;;;0.38;0.35;;;;;;;;;;4980048;28;20081;-76
2021/12/30 09:56:00;;;;;;;0.30;0.30;;;;;;;;;;5014580;28;20597;-77
2021/12/30 09:58:27;;;;;;;0.40;0.40;;;;;;;;;;5013267;28;20522;-77
2021/12/30 10:00:55;;;;;;;1.20;0.40;;;;;;;;;;5014193;28;20044;-76
2021/12/30 10:03:20;;;;;;;0.47;0.30;;;;;;;;;;5012524;28;20048;-76
2021/12/30 10:05:46;;;;;;;0.40;0.40;;;;;;;;;;5013996;28;20049;-76
2021/12/30 10:08:14;;;;;;;0.60;0.40;;;;;;;;;;5012222;28;20073;-75
2021/12/30 10:10:43;;;;;;;1.90;0.30;;;;;;;;;;5013020;28;20038;-76
2021/12/30 10:13:19;;;;;;;1.65;0.30;;;;;;;;;;4995456;28;20129;-76
2021/12/30 10:15:47;;;;;;;0.88;0.40;;;;;;;;;;4995666;28;20044;-76
2021/12/30 10:18:14;;;;;;;0.30;0.30;;;;;;;;;;4995701;28;20095;-76
2021/12/30 10:20:42;;;;;;;0.82;0.20;;;;;;;;;;4972890;28;20058;-76
2021/12/30 10:23:11;;;;;;;0.40;0.40;;;;;;;;;;4994527;28;20487;-76
2021/12/30 10:26:00;;;;;;;1.08;0.35;;;;;;;;;;4995717;28;20056;-76
2021/12/30 10:28:25;;;;;;;0.40;0.40;;;;;;;;;;5014418;28;20100;-77
2021/12/30 10:30:54;;;;;;;0.35;0.20;;;;;;;;;;4979332;28;20431;-77
2021/12/30 10:33:29;;;;;;;0.40;0.40;;;;;;;;;;4992539;28;20046;-77
2021/12/30 10:35:55;;;;;;;0.43;0.43;;;;;;;;;;4959874;28;20078;-77
2021/12/30 10:38:22;;;;;;;0.60;0.60;;;;;;;;;;4992492;28;20505;-76
2021/12/30 10:40:51;;;;;;;0.60;0.40;;;;;;;;;;4993219;28;20054;-76
2021/12/30 10:46:09;;;;;;;0.30;0.30;;;;;;;;;;4994790;28;20501;-77
2021/12/30 10:48:46;;;;;;;3.10;0.50;;;;;;;;;;4997294;28;20044;-78
2021/12/30 10:51:31;;;;;;;0.40;0.40;;;;;;;;;;4980052;28;20041;-78
2021/12/30 10:53:58;;;;;;;0.32;0.32;;;;;;;;;;5002444;28;20022;-77
2021/12/30 10:56:33;;;;;;;0.30;0.30;;;;;;;;;;4998390;28;20482;-78
2021/12/30 10:59:11;;;;;;;2.92;0.40;;;;;;;;;;4994703;28;20038;-77
2021/12/30 11:01:43;;;;;;;0.35;0.35;;;;;;;;;;4980252;28;20502;-76
2021/12/30 11:04:09;;;;;;;0.50;0.32;;;;;;;;;;4996123;28;20053;-76
2021/12/30 11:06:35;;;;;;;1.17;0.30;;;;;;;;;;4999813;28;20057;-77
2021/12/30 11:09:08;;;;;;;0.40;0.40;;;;;;;;;;4991336;28;20471;-76
2021/12/30 11:11:34;;;;;;;0.50;0.50;;;;;;;;;;4976195;28;20030;-77
2021/12/30 11:14:08;;;;;;;1.60;0.40;;;;;;;;;;4997441;28;20087;-77
2021/12/30 11:16:59;;;;;;;0.30;0.30;;;;;;;;;;4983539;28;20057;-77
2021/12/30 11:19:26;;;;;;;0.30;0.30;;;;;;;;;;4979339;28;20042;-77
2021/12/30 11:21:52;;;;;;;0.30;0.22;;;;;;;;;;4979480;28;20495;-77
2021/12/30 11:24:20;;;;;;;0.98;0.30;;;;;;;;;;4980049;28;20022;-77
2021/12/30 11:26:45;;;;;;;0.55;0.40;;;;;;;;;;4971911;28;20510;-79
2021/12/30 11:29:11;;;;;;;0.43;0.40;;;;;;;;;;4996917;28;20077;-79
2021/12/30 11:31:36;;;;;;;0.52;0.40;;;;;;;;;;4997883;28;20040;-79
2021/12/30 11:34:03;;;;;;;0.40;0.40;;;;;;;;;;5004292;28;20041;-80
2021/12/30 11:36:29;;;;;;;2.65;0.40;;;;;;;;;;4997611;28;20042;-79
2021/12/30 11:38:58;;;;;;;0.52;0.30;;;;;;;;;;5002484;28;20357;-79
2021/12/30 11:41:26;;;;;;;1.52;0.35;;;;;;;;;;4985251;28;20030;-76
2021/12/30 11:43:52;;;;;;;0.40;0.40;;;;;;;;;;4998229;28;20081;-76
2021/12/30 11:46:41;;;;;;;0.38;0.38;;;;;;;;;;5002454;28;20064;-76
2021/12/30 11:49:09;;;;;;;1.60;0.52;;;;;;;;;;5006201;23;20072;-72
2021/12/30 11:51:49;;;;;;;0.77;0.45;;;;;;;;;;4995873;28;20050;-71
2021/12/30 11:54:38;;;;;;;0.60;0.40;;;;;;;;;;5009094;28;20053;-71
2021/12/30 11:57:22;;;;;;;0.40;0.30;;;;;;;;;;4997289;28;20910;-69
2021/12/30 11:59:48;;;;;;;0.55;0.30;;;;;;;;;;5003928;28;20029;-69
2021/12/30 12:02:39;;;;;;;0.45;0.45;;;;;;;;;;5001224;28;20537;-71
2021/12/30 12:05:43;;;;;;;0.30;0.30;;;;;;;;;;5005386;28;20062;-67
2021/12/30 12:08:13;;;;;;;0.70;0.50;;;;;;;;;;5009948;28;20073;-70
2021/12/30 12:10:40;;;;;;;0.80;0.47;;;;;;;;;;5009288;28;20049;-68
2021/12/30 12:13:30;;;;;;;1.00;0.40;;;;;;;;;;5009510;28;20037;-73
2021/12/30 12:15:59;;;;;;;0.40;0.30;;;;;;;;;;5009716;28;20386;-70
2021/12/30 12:18:26;;;;;;;0.50;0.50;;;;;;;;;;5009505;28;20034;-72
2021/12/30 12:20:53;;;;;;;1.27;0.40;;;;;;;;;;5008237;28;20041;-70
2021/12/30 12:23:38;;;;;;;0.40;0.40;;;;;;;;;;5001229;28;20046;-71
2021/12/30 12:26:16;;;;;;;1.42;0.50;;;;;;;;;;5009858;28;20053;-70
2021/12/30 12:28:42;;;;;;;0.80;0.50;;;;;;;;;;5009769;28;20041;-70
2021/12/30 12:31:10;;;;;;;1.27;0.40;;;;;;;;;;5008747;28;20033;-70
2021/12/30 12:33:38;;;;;;;0.85;0.50;;;;;;;;;;5009034;28;20037;-70
2021/12/30 12:36:17;;;;;;;1.02;0.45;;;;;;;;;;5009823;28;20095;-72
2021/12/30 12:38:45;;;;;;;1.00;0.40;;;;;;;;;;5009504;28;20056;-71
2021/12/30 12:41:31;;;;;;;0.50;0.30;;;;;;;;;;5010269;28;20037;-70
2021/12/30 12:44:01;;;;;;;4.30;1.48;;;;;;;;;;5008605;28;20056;-71
2021/12/30 12:46:38;;;;;;;1.58;0.52;;;;;;;;;;5008745;28;20085;-70
2021/12/30 12:49:06;;;;;;;0.30;0.30;;;;;;;;;;5010331;28;20124;-70
2021/12/30 12:51:33;;;;;;;0.50;0.50;;;;;;;;;;5010274;28;20034;-71
2021/12/30 12:54:03;;;;;;;0.50;0.50;;;;;;;;;;5009780;28;20057;-70
2021/12/30 12:56:39;;;;;;;0.40;0.40;;;;;;;;;;5010221;28;20038;-70
2021/12/30 12:59:14;;;;;;;0.60;0.60;;;;;;;;;;5009472;28;20045;-70
2021/12/30 13:01:41;;;;;;;0.98;0.80;;;;;;;;;;5009631;28;20449;-72
2021/12/30 13:04:08;;;;;;;0.70;0.70;;;;;;;;;;5009686;28;20390;-70
2021/12/30 13:06:41;;;;;;;1.42;1.33;;;;;;;;;;5010328;28;20026;-70
2021/12/30 13:09:20;;;;;;;0.80;0.80;;;;;;;;;;5010271;28;20038;-70
2021/12/30 13:11:49;;;;;;;1.67;1.58;;;;;;;;;;5010144;28;20046;-70
2021/12/30 13:14:22;;;;;;;0.90;0.75;;;;;;;;;;5010163;28;20487;-71
2021/12/30 13:17:10;;;;;;;1.45;0.80;;;;;;;;;;5009734;28;20479;-72
2021/12/30 13:19:38;;;;;;;1.05;0.57;;;;;;;;;;5010081;28;20089;-71
2021/12/30 13:22:08;;;;;;;3.75;0.50;;;;;;;;;;5009921;28;20042;-71
2021/12/30 13:24:41;;;;;;;0.55;0.50;;;;;;;;;;5009070;28;20092;-71
2021/12/30 13:27:38;;;;;;;1.95;0.50;;;;;;;;;;5009372;28;20073;-71
2021/12/30 13:30:13;;;;;;;0.60;0.60;;;;;;;;;;5009920;28;20033;-71
2021/12/30 13:32:44;;;;;;;0.55;0.50;;;;;;;;;;4990548;28;20046;-70
2021/12/30 13:35:13;;;;;;;0.50;0.50;;;;;;;;;;4990677;28;20031;-70
2021/12/30 13:37:54;;;;;;;2.38;1.58;;;;;;;;;;4994375;28;20037;-70
2021/12/30 13:40:26;;;;;;;1.50;1.10;;;;;;;;;;5002138;28;20026;-71
2021/12/30 13:42:56;;;;;;;;;;;;;;;;;;5009311;28;20100;-71
2021/12/30 13:45:34;;;;;;;0.85;0.60;;;;;;;;;;5010365;28;20362;-71
2021/12/30 13:48:08;;;;;;;0.40;0.40;;;;;;;;;;5009191;28;20191;-71
2021/12/30 13:50:36;;;;;;;0.38;0.38;;;;;;;;;;5010276;28;20041;-70
2021/12/30 13:53:03;;;;;;;0.40;0.40;;;;;;;;;;5011178;28;20393;-72
2021/12/30 13:55:36;;;;;;;0.47;0.45;;;;;;;;;;5010997;28;20044;-70
2021/12/30 13:58:06;;;;;;;2.05;0.50;;;;;;;;;;5011265;28;20087;-69
2021/12/30 14:00:38;;;;;;;0.52;0.52;;;;;;;;;;5011626;28;20030;-71
2021/12/30 14:03:07;;;;;;;0.50;0.50;;;;;;;;;;5018409;28;20042;-73
2021/12/30 14:05:34;;;;;;;3.80;0.82;;;;;;;;;;5010960;28;20041;-72
2021/12/30 14:08:05;;;;;;;0.38;0.38;;;;;;;;;;5010263;28;20100;-72
2021/12/30 14:10:51;;;;;;;0.43;0.43;;;;;;;;;;5009428;28;20033;-72
2021/12/30 14:13:17;;;;;;;0.52;0.40;;;;;;;;;;5012066;28;20046;-72
2021/12/30 14:15:43;;;;;;;0.30;0.30;;;;;;;;;;5002280;28;20212;-71
2021/12/30 14:18:11;;;;;;;0.30;0.30;;;;;;;;;;5013556;28;20124;-72
2021/12/30 14:20:41;;;;;;;1.13;0.40;;;;;;;;;;5007884;28;20034;-71
2021/12/30 14:23:06;;;;;;;0.40;0.40;;;;;;;;;;5008678;28;20061;-72
2021/12/30 14:25:34;;;;;;;0.30;0.30;;;;;;;;;;5011256;28;20054;-72
2021/12/30 14:28:15;;;;;;;1.13;0.40;;;;;;;;;;5002035;28;20046;-71
2021/12/30 14:30:41;;;;;;;1.95;0.52;;;;;;;;;;5001896;28;20038;-72
2021/12/30 14:33:28;;;;;;;1.23;0.30;;;;;;;;;;4997164;28;20033;-72
2021/12/30 14:36:12;;;;;;;0.68;0.40;;;;;;;;;;4999743;28;20122;-71
2021/12/30 14:38:39;;;;;;;0.30;0.30;;;;;;;;;;4990170;28;20042;-74
2021/12/30 14:41:17;;;;;;;0.68;0.30;;;;;;;;;;4990125;28;20177;-71
2021/12/30 14:44:09;;;;;;;0.40;0.40;;;;;;;;;;4995155;28;20476;-72
2021/12/30 14:46:41;;;;;;;0.40;0.40;;;;;;;;;;5005180;28;20061;-71
2021/12/30 14:49:15;;;;;;;0.50;0.40;;;;;;;;;;5011546;28;20034;-71
2021/12/30 14:51:41;;;;;;;0.30;0.30;;;;;;;;;;5011376;28;20387;-71